createdAt,value
2023-03-22T00:00:05.456Z,88.49
2023-03-22T00:01:05.443Z,89.11
2023-03-22T00:02:05.436Z,89.21
2023-03-22T00:03:05.523Z,88.43
2023-03-22T00:04:05.524Z,88.43
2023-03-22T00:05:05.378Z,88.29
2023-03-22T00:06:05.380Z,88.33
2023-03-22T00:07:05.353Z,88.43
2023-03-22T00:08:05.341Z,88.64
2023-03-22T00:09:05.332Z,88.64
2023-03-22T00:10:05.315Z,88.78
2023-03-22T00:11:05.299Z,88.84
2023-03-22T00:12:05.291Z,88.64
2023-03-22T00:13:05.274Z,88.47
2023-03-22T00:14:05.262Z,88.88
2023-03-22T00:15:05.248Z,88.57
2023-03-22T00:16:05.344Z,88.84
2023-03-22T00:17:05.224Z,89.70
2023-03-22T00:18:05.211Z,89.70
2023-03-22T00:19:05.224Z,89.50
2023-03-22T00:20:05.178Z,89.23
2023-03-22T00:21:05.161Z,89.23
2023-03-22T00:22:05.148Z,89.64
2023-03-22T00:23:05.135Z,90.36
2023-03-22T00:24:05.121Z,90.16
2023-03-22T00:25:05.110Z,89.84
2023-03-22T00:26:05.089Z,90.09
2023-03-22T00:27:05.080Z,89.84
2023-03-22T00:28:05.066Z,89.43
2023-03-22T00:29:05.061Z,89.95
2023-03-22T00:30:05.041Z,90.30
2023-03-22T00:31:05.132Z,90.50
2023-03-22T00:32:05.015Z,90.50
2023-03-22T00:33:05.001Z,90.40
2023-03-22T00:34:04.987Z,90.61
2023-03-22T00:35:05.006Z,90.71
2023-03-22T00:36:04.954Z,90.65
2023-03-22T00:37:04.943Z,90.95
2023-03-22T00:38:04.932Z,91.06
2023-03-22T00:39:04.927Z,91.06
2023-03-22T00:40:04.979Z,91.27
2023-03-22T00:41:04.890Z,91.06
2023-03-22T00:42:04.894Z,90.95
2023-03-22T00:43:04.860Z,91.41
2023-03-22T00:44:04.853Z,91.37
2023-03-22T00:45:04.846Z,91.61
2023-03-22T00:46:04.911Z,91.37
2023-03-22T00:47:04.821Z,91.10
2023-03-22T00:48:04.855Z,91.41
2023-03-22T00:49:04.784Z,92.03
2023-03-22T00:50:04.770Z,91.93
2023-03-22T00:51:04.797Z,92.48
2023-03-22T00:52:04.741Z,92.58
2023-03-22T00:53:04.728Z,92.79
2023-03-22T00:54:04.708Z,93.30
2023-03-22T00:55:04.700Z,93.67
2023-03-22T00:56:04.696Z,93.82
2023-03-22T00:57:04.675Z,92.99
2023-03-22T00:58:04.666Z,93.10
2023-03-22T00:59:04.649Z,93.40
2023-03-22T01:00:04.627Z,93.61
2023-03-22T01:01:04.649Z,93.40
2023-03-22T01:02:04.601Z,93.51
2023-03-22T01:03:04.588Z,93.61
2023-03-22T01:04:04.578Z,93.20
2023-03-22T01:05:04.561Z,93.10
2023-03-22T01:06:04.553Z,93.04
2023-03-22T01:07:04.559Z,93.35
2023-03-22T01:08:04.522Z,93.65
2023-03-22T01:09:04.510Z,93.65
2023-03-22T01:10:04.495Z,93.65
2023-03-22T01:11:04.484Z,94.27
2023-03-22T01:12:04.472Z,94.21
2023-03-22T01:13:04.455Z,94.21
2023-03-22T01:14:04.439Z,94.21
2023-03-22T01:15:04.432Z,94.93
2023-03-22T01:16:04.431Z,95.65
2023-03-22T01:17:04.396Z,95.34
2023-03-22T01:18:04.385Z,94.93
2023-03-22T01:19:04.377Z,95.14
2023-03-22T01:20:04.354Z,95.55
2023-03-22T01:21:04.403Z,95.24
2023-03-22T01:22:04.326Z,95.08
2023-03-22T01:23:04.355Z,94.87
2023-03-22T01:24:04.307Z,94.77
2023-03-22T01:25:04.291Z,95.28
2023-03-22T01:26:04.280Z,96.00
2023-03-22T01:27:04.274Z,96.42
2023-03-22T01:28:04.242Z,96.77
2023-03-22T01:29:04.231Z,96.42
2023-03-22T01:30:04.233Z,96.11
2023-03-22T01:31:04.325Z,95.84
2023-03-22T01:32:04.221Z,95.90
2023-03-22T01:33:04.188Z,96.83
2023-03-22T01:34:04.188Z,97.03
2023-03-22T01:35:04.155Z,96.67
2023-03-22T01:36:04.202Z,96.77
2023-03-22T01:37:04.130Z,96.77
2023-03-22T01:38:04.131Z,96.56
2023-03-22T01:39:04.133Z,96.15
2023-03-22T01:40:04.084Z,95.74
2023-03-22T01:41:04.074Z,95.37
2023-03-22T01:42:04.057Z,95.78
2023-03-22T01:43:04.064Z,96.09
2023-03-22T01:44:04.029Z,96.41
2023-03-22T01:45:04.021Z,97.13
2023-03-22T01:46:04.041Z,98.15
2023-03-22T01:47:03.989Z,98.36
2023-03-22T01:48:04.066Z,97.95
2023-03-22T01:49:04.020Z,98.30
2023-03-22T01:50:03.955Z,98.15
2023-03-22T01:51:03.938Z,98.05
2023-03-22T01:52:03.937Z,98.10
2023-03-22T01:53:03.916Z,97.85
2023-03-22T01:54:03.917Z,97.78
2023-03-22T01:55:03.911Z,98.36
2023-03-22T01:56:03.880Z,98.77
2023-03-22T01:57:03.873Z,98.50
2023-03-22T01:58:03.839Z,98.30
2023-03-22T01:59:03.829Z,98.30
2023-03-22T02:00:03.822Z,98.20
2023-03-22T02:01:03.886Z,98.20
2023-03-22T02:02:03.798Z,98.35
2023-03-22T02:03:03.850Z,98.86
2023-03-22T02:04:03.772Z,99.27
2023-03-22T02:05:03.748Z,99.17
2023-03-22T02:06:03.730Z,99.69
2023-03-22T02:07:03.719Z,99.99
2023-03-22T02:08:03.705Z,99.90
2023-03-22T02:09:03.693Z,99.90
2023-03-22T02:10:03.685Z,99.99
2023-03-22T02:11:03.693Z,99.99
2023-03-22T02:12:03.654Z,99.99
2023-03-22T02:13:03.644Z,99.99
2023-03-22T02:14:03.626Z,99.99
2023-03-22T02:15:03.616Z,99.99
2023-03-22T02:16:03.616Z,99.99
2023-03-22T02:17:03.588Z,99.99
2023-03-22T02:18:03.571Z,99.99
2023-03-22T02:19:03.558Z,99.99
2023-03-22T02:20:03.546Z,99.99
2023-03-22T02:21:03.535Z,99.99
2023-03-22T02:22:03.519Z,99.99
2023-03-22T02:23:03.504Z,99.99
2023-03-22T02:24:03.495Z,99.99
2023-03-22T02:25:03.498Z,99.99
2023-03-22T02:26:03.463Z,99.99
2023-03-22T02:27:03.473Z,99.99
2023-03-22T02:28:03.440Z,99.99
2023-03-22T02:29:03.430Z,99.99
2023-03-22T02:30:03.412Z,99.99
2023-03-22T02:31:03.506Z,99.99
2023-03-22T02:32:03.375Z,99.99
2023-03-22T02:33:03.369Z,99.99
2023-03-22T02:34:03.355Z,99.99
2023-03-22T02:35:03.364Z,99.99
2023-03-22T02:36:03.324Z,99.99
2023-03-22T02:37:03.312Z,99.99
2023-03-22T02:38:03.306Z,99.99
2023-03-22T02:39:03.287Z,99.99
2023-03-22T02:40:03.270Z,99.99
2023-03-22T02:41:03.256Z,99.99
2023-03-22T02:42:03.254Z,99.99
2023-03-22T02:43:03.250Z,99.99
2023-03-22T02:44:03.218Z,99.99
2023-03-22T02:45:03.201Z,99.99
2023-03-22T02:46:03.187Z,99.99
2023-03-22T02:47:03.173Z,99.99
2023-03-22T02:48:03.241Z,99.99
2023-03-22T02:49:03.156Z,99.99
2023-03-22T02:50:03.133Z,99.99
2023-03-22T02:51:03.121Z,99.99
2023-03-22T02:52:03.111Z,99.99
2023-03-22T02:53:03.096Z,99.99
2023-03-22T02:54:03.094Z,99.99
2023-03-22T02:55:03.077Z,99.99
2023-03-22T02:56:03.104Z,99.99
2023-03-22T02:57:03.049Z,99.99
2023-03-22T02:58:03.225Z,99.99
2023-03-22T02:59:03.094Z,99.99
2023-03-22T03:00:02.998Z,99.99
2023-03-22T03:01:03.053Z,99.99
2023-03-22T03:02:03.030Z,99.99
2023-03-22T03:03:02.957Z,99.99
2023-03-22T03:04:02.941Z,99.99
2023-03-22T03:05:02.943Z,99.99
2023-03-22T03:06:02.944Z,99.99
2023-03-22T03:07:02.900Z,99.99
2023-03-22T03:08:02.896Z,99.99
2023-03-22T03:09:02.885Z,99.99
2023-03-22T03:10:02.857Z,99.99
2023-03-22T03:11:02.845Z,99.99
2023-03-22T03:12:02.829Z,99.99
2023-03-22T03:13:02.814Z,99.99
2023-03-22T03:14:02.801Z,99.99
2023-03-22T03:15:02.809Z,99.99
2023-03-22T03:16:03.002Z,99.99
2023-03-22T03:17:02.756Z,99.99
2023-03-22T03:18:02.748Z,99.99
2023-03-22T03:19:02.733Z,99.99
2023-03-22T03:20:02.724Z,99.99
2023-03-22T03:21:02.702Z,99.99
2023-03-22T03:22:02.744Z,99.99
2023-03-22T03:23:02.672Z,99.99
2023-03-22T03:24:02.671Z,99.99
2023-03-22T03:25:02.652Z,99.99
2023-03-22T03:26:02.649Z,99.99
2023-03-22T03:27:02.627Z,99.99
2023-03-22T03:28:02.619Z,99.99
2023-03-22T03:29:02.597Z,99.99
2023-03-22T03:30:02.603Z,99.99
2023-03-22T03:31:02.596Z,99.99
2023-03-22T03:32:02.566Z,99.99
2023-03-22T03:33:02.542Z,99.99
2023-03-22T03:34:02.529Z,99.99
2023-03-22T03:35:02.516Z,99.99
2023-03-22T03:36:02.501Z,99.99
2023-03-22T03:37:02.483Z,99.99
2023-03-22T03:38:02.476Z,99.99
2023-03-22T03:39:02.461Z,99.99
2023-03-22T03:40:02.451Z,99.99
2023-03-22T03:41:02.435Z,99.99
2023-03-22T03:42:02.423Z,99.99
2023-03-22T03:43:02.929Z,99.99
2023-03-22T03:44:02.410Z,99.99
2023-03-22T03:45:02.380Z,99.99
2023-03-22T03:46:02.684Z,99.99
2023-03-22T03:47:02.382Z,99.99
2023-03-22T03:48:02.418Z,99.99
2023-03-22T03:49:02.333Z,99.99
2023-03-22T03:50:02.341Z,99.99
2023-03-22T03:51:02.322Z,99.99
2023-03-22T03:52:02.286Z,99.99
2023-03-22T03:53:02.274Z,99.99
2023-03-22T03:54:02.256Z,99.99
2023-03-22T03:55:02.247Z,99.99
2023-03-22T03:56:02.248Z,99.99
2023-03-22T03:57:03.990Z,99.99
2023-03-22T03:58:02.239Z,99.99
2023-03-22T03:59:02.194Z,99.99
2023-03-22T04:00:02.287Z,99.99
2023-03-22T04:01:02.191Z,99.99
2023-03-22T04:02:02.237Z,99.99
2023-03-22T04:03:02.165Z,99.99
2023-03-22T04:04:02.188Z,99.99
2023-03-22T04:05:02.114Z,99.99
2023-03-22T04:06:02.110Z,99.99
2023-03-22T04:07:02.436Z,99.99
2023-03-22T04:08:02.277Z,99.99
2023-03-22T04:09:02.078Z,99.99
2023-03-22T04:10:02.196Z,99.99
2023-03-22T04:11:02.039Z,99.99
2023-03-22T04:12:02.024Z,99.99
2023-03-22T04:13:02.464Z,99.99
2023-03-22T04:14:02.298Z,99.99
2023-03-22T04:15:01.985Z,99.99
2023-03-22T04:16:02.322Z,99.99
2023-03-22T04:17:02.350Z,99.99
2023-03-22T04:18:01.957Z,99.99
2023-03-22T04:19:01.958Z,99.99
2023-03-22T04:20:03.615Z,99.99
2023-03-22T04:21:01.913Z,99.99
2023-03-22T04:22:01.896Z,99.99
2023-03-22T04:23:01.872Z,99.99
2023-03-22T04:24:01.885Z,99.99
2023-03-22T04:25:01.847Z,99.99
2023-03-22T04:26:01.840Z,99.99
2023-03-22T04:27:01.822Z,99.99
2023-03-22T04:28:01.811Z,99.99
2023-03-22T04:29:01.799Z,99.99
2023-03-22T04:30:01.783Z,99.99
2023-03-22T04:31:01.825Z,99.99
2023-03-22T04:32:01.761Z,99.99
2023-03-22T04:33:01.744Z,99.99
2023-03-22T04:34:01.728Z,99.99
2023-03-22T04:35:01.746Z,99.99
2023-03-22T04:36:04.424Z,99.99
2023-03-22T04:37:01.692Z,99.99
2023-03-22T04:38:01.683Z,99.99
2023-03-22T04:39:01.667Z,99.99
2023-03-22T04:40:01.643Z,99.99
2023-03-22T04:41:01.646Z,99.99
2023-03-22T04:42:01.617Z,99.99
2023-03-22T04:43:01.615Z,99.99
2023-03-22T04:44:01.595Z,99.99
2023-03-22T04:45:01.580Z,99.99
2023-03-22T04:46:01.614Z,99.99
2023-03-22T04:47:01.572Z,99.99
2023-03-22T04:48:01.611Z,99.99
2023-03-22T04:49:01.547Z,99.99
2023-03-22T04:50:01.520Z,99.99
2023-03-22T04:51:01.536Z,99.99
2023-03-22T04:52:01.503Z,99.99
2023-03-22T04:53:01.479Z,99.99
2023-03-22T04:54:01.463Z,99.99
2023-03-22T04:55:01.444Z,99.99
2023-03-22T04:56:01.433Z,99.99
2023-03-22T04:57:01.416Z,99.99
2023-03-22T04:58:01.428Z,99.99
2023-03-22T04:59:01.393Z,99.99
2023-03-22T05:00:01.376Z,99.99
2023-03-22T05:01:01.368Z,99.99
2023-03-22T05:02:01.505Z,99.99
2023-03-22T05:03:01.411Z,99.99
2023-03-22T05:04:01.330Z,99.99
2023-03-22T05:05:01.321Z,99.99
2023-03-22T05:06:01.301Z,99.99
2023-03-22T05:07:01.320Z,99.99
2023-03-22T05:08:01.317Z,99.99
2023-03-22T05:09:01.263Z,99.99
2023-03-22T05:10:01.598Z,99.99
2023-03-22T05:11:01.232Z,99.99
2023-03-22T05:12:01.224Z,99.99
2023-03-22T05:13:01.301Z,99.99
2023-03-22T05:14:01.187Z,99.99
2023-03-22T05:15:01.171Z,99.99
2023-03-22T05:16:01.213Z,99.99
2023-03-22T05:17:01.154Z,99.99
2023-03-22T05:18:01.281Z,99.99
2023-03-22T05:19:01.122Z,99.99
2023-03-22T05:20:01.123Z,99.99
2023-03-22T05:21:01.096Z,99.99
2023-03-22T05:22:01.076Z,99.99
2023-03-22T05:23:01.297Z,99.99
2023-03-22T05:24:01.058Z,99.99
2023-03-22T05:25:01.036Z,99.99
2023-03-22T05:26:01.028Z,99.99
2023-03-22T05:27:01.182Z,99.99
2023-03-22T05:28:01.308Z,99.99
2023-03-22T05:29:00.985Z,99.99
2023-03-22T05:30:00.972Z,99.99
2023-03-22T05:31:00.960Z,99.99
2023-03-22T05:32:00.943Z,99.99
2023-03-22T05:33:00.933Z,99.99
2023-03-22T05:34:00.920Z,99.99
2023-03-22T05:35:00.904Z,99.99
2023-03-22T05:36:00.887Z,99.99
2023-03-22T05:37:00.890Z,99.99
2023-03-22T05:38:00.863Z,99.99
2023-03-22T05:39:00.888Z,99.99
2023-03-22T05:40:00.832Z,99.99
2023-03-22T05:41:00.826Z,99.99
2023-03-22T05:42:00.807Z,99.99
2023-03-22T05:43:00.798Z,99.99
2023-03-22T05:44:00.783Z,99.99
2023-03-22T05:45:00.771Z,99.99
2023-03-22T05:46:00.765Z,99.99
2023-03-22T05:47:00.792Z,99.99
2023-03-22T05:48:00.800Z,99.99
2023-03-22T05:49:00.721Z,99.99
2023-03-22T05:50:00.701Z,99.99
2023-03-22T05:51:00.693Z,99.99
2023-03-22T05:52:00.682Z,99.99
2023-03-22T05:53:00.670Z,99.99
2023-03-22T05:54:00.645Z,99.99
2023-03-22T05:55:00.672Z,99.80
2023-03-22T05:56:00.673Z,99.70
2023-03-22T05:57:00.615Z,99.70
2023-03-22T05:58:00.595Z,99.55
2023-03-22T05:59:00.584Z,99.29
2023-03-22T06:00:00.573Z,99.18
2023-03-22T06:01:00.559Z,98.41
2023-03-22T06:02:00.579Z,97.49
2023-03-22T06:03:00.620Z,97.17
2023-03-22T06:04:00.558Z,96.97
2023-03-22T06:05:00.514Z,96.86
2023-03-22T06:06:00.496Z,96.41
2023-03-22T06:07:00.494Z,95.99
2023-03-22T06:08:00.469Z,95.43
2023-03-22T06:09:10.681Z,94.67
2023-03-22T06:10:01.476Z,93.73
2023-03-22T06:11:00.453Z,92.70
2023-03-22T06:12:00.416Z,91.89
2023-03-22T06:13:00.439Z,91.24
2023-03-22T06:14:00.384Z,90.61
2023-03-22T06:15:00.367Z,89.13
2023-03-22T06:16:00.351Z,88.51
2023-03-22T06:17:00.345Z,88.10
2023-03-22T06:18:00.325Z,87.65
2023-03-22T06:19:00.336Z,86.99
2023-03-22T06:20:00.305Z,85.82
2023-03-22T06:21:00.316Z,85.12
2023-03-22T06:22:00.272Z,84.30
2023-03-22T06:23:00.258Z,82.89
2023-03-22T06:24:00.251Z,81.92
2023-03-22T06:25:00.239Z,80.72
2023-03-22T06:26:00.241Z,80.00
2023-03-22T06:27:00.231Z,79.04
2023-03-22T06:28:00.191Z,78.32
2023-03-22T06:29:00.187Z,77.47
2023-03-22T06:30:00.182Z,77.33
2023-03-22T06:31:00.202Z,76.57
2023-03-22T06:32:00.143Z,76.23
2023-03-22T06:33:00.118Z,75.38
2023-03-22T06:34:00.124Z,75.04
2023-03-22T06:35:00.107Z,74.18
2023-03-22T06:36:00.074Z,74.15
2023-03-22T06:37:00.087Z,73.71
2023-03-22T06:38:00.043Z,72.45
2023-03-22T06:39:00.040Z,70.68
2023-03-22T06:40:00.028Z,72.11
2023-03-22T06:41:00.007Z,70.41
2023-03-22T06:41:59.987Z,69.46
2023-03-22T06:43:03.598Z,67.76
2023-03-22T06:43:59.967Z,69.39
2023-03-22T06:44:59.953Z,69.29
2023-03-22T06:46:00.211Z,70.10
2023-03-22T06:46:59.924Z,70.10
2023-03-22T06:47:59.996Z,71.53
2023-03-22T06:48:59.953Z,72.28
2023-03-22T06:49:59.969Z,71.64
2023-03-22T06:50:59.870Z,68.58
2023-03-22T06:51:59.856Z,67.05
2023-03-22T06:52:59.836Z,67.43
2023-03-22T06:53:59.830Z,67.50
2023-03-22T06:54:59.810Z,68.72
2023-03-22T06:55:59.802Z,67.10
2023-03-22T06:56:59.788Z,65.26
2023-03-22T06:57:59.772Z,65.57
2023-03-22T06:58:59.788Z,66.76
2023-03-22T06:59:59.744Z,65.57
2023-03-22T07:00:59.821Z,66.38
2023-03-22T07:01:59.721Z,66.79
2023-03-22T07:02:59.709Z,65.09
2023-03-22T07:03:59.822Z,67.33
2023-03-22T07:04:59.678Z,66.69
2023-03-22T07:05:59.681Z,66.35
2023-03-22T07:06:59.664Z,65.64
2023-03-22T07:07:59.631Z,65.54
2023-03-22T07:08:59.619Z,66.42
2023-03-22T07:09:59.612Z,65.27
2023-03-22T07:10:59.596Z,64.87
2023-03-22T07:11:59.580Z,64.94
2023-03-22T07:12:59.566Z,65.62
2023-03-22T07:13:59.552Z,65.99
2023-03-22T07:14:59.618Z,62.89
2023-03-22T07:15:59.583Z,63.87
2023-03-22T07:16:59.527Z,60.91
2023-03-22T07:17:59.500Z,60.30
2023-03-22T07:18:59.490Z,63.71
2023-03-22T07:19:59.471Z,60.25
2023-03-22T07:20:59.476Z,60.14
2023-03-22T07:21:59.443Z,59.00
2023-03-22T07:22:59.432Z,59.18
2023-03-22T07:23:59.427Z,58.54
2023-03-22T07:25:01.674Z,56.60
2023-03-22T07:25:59.399Z,57.48
2023-03-22T07:26:59.383Z,56.04
2023-03-22T07:27:59.376Z,56.55
2023-03-22T07:28:59.358Z,54.81
2023-03-22T07:29:59.338Z,56.42
2023-03-22T07:30:59.359Z,54.43
2023-03-22T07:31:59.403Z,54.71
2023-03-22T07:32:59.320Z,54.63
2023-03-22T07:33:59.280Z,54.83
2023-03-22T07:34:59.524Z,55.24
2023-03-22T07:35:59.335Z,55.51
2023-03-22T07:36:59.250Z,54.68
2023-03-22T07:37:59.234Z,53.67
2023-03-22T07:38:59.218Z,55.64
2023-03-22T07:39:59.204Z,56.24
2023-03-22T07:40:59.212Z,55.51
2023-03-22T07:41:59.177Z,53.90
2023-03-22T07:42:59.181Z,55.08
2023-03-22T07:44:14.766Z,53.75
2023-03-22T07:45:00.265Z,53.12
2023-03-22T07:45:59.138Z,52.92
2023-03-22T07:46:59.294Z,52.39
2023-03-22T07:47:59.547Z,51.81
2023-03-22T07:48:59.098Z,52.59
2023-03-22T07:49:59.074Z,52.09
2023-03-22T07:50:59.080Z,51.56
2023-03-22T07:51:59.093Z,51.34
2023-03-22T07:52:59.054Z,51.24
2023-03-22T07:53:59.039Z,50.84
2023-03-22T07:54:59.012Z,51.14
2023-03-22T07:55:59.000Z,50.63
2023-03-22T07:56:58.982Z,50.51
2023-03-22T07:57:58.978Z,50.35
2023-03-22T07:58:59.049Z,52.04
2023-03-22T07:59:58.945Z,53.42
2023-03-22T08:00:58.933Z,54.66
2023-03-22T08:01:58.950Z,55.79
2023-03-22T08:02:58.995Z,57.14
2023-03-22T08:03:58.899Z,57.97
2023-03-22T08:04:58.881Z,57.82
2023-03-22T08:05:58.878Z,58.76
2023-03-22T08:06:58.855Z,59.19
2023-03-22T08:07:58.850Z,59.75
2023-03-22T08:08:58.827Z,61.40
2023-03-22T08:09:59.319Z,61.83
2023-03-22T08:10:58.804Z,62.37
2023-03-22T08:11:58.787Z,61.87
2023-03-22T08:12:58.775Z,62.07
2023-03-22T08:13:58.763Z,62.30
2023-03-22T08:14:58.741Z,63.32
2023-03-22T08:15:58.961Z,63.52
2023-03-22T08:16:58.725Z,64.97
2023-03-22T08:17:58.698Z,64.76
2023-03-22T08:18:58.723Z,65.00
2023-03-22T08:19:58.682Z,64.67
2023-03-22T08:20:58.666Z,64.97
2023-03-22T08:21:58.648Z,64.94
2023-03-22T08:22:58.650Z,64.30
2023-03-22T08:23:58.616Z,62.08
2023-03-22T08:24:58.606Z,60.55
2023-03-22T08:25:58.609Z,55.69
2023-03-22T08:26:58.579Z,55.64
2023-03-22T08:27:58.583Z,54.66
2023-03-22T08:28:58.552Z,52.92
2023-03-22T08:29:58.592Z,52.87
2023-03-22T08:30:58.531Z,52.62
2023-03-22T08:31:58.566Z,52.26
2023-03-22T08:32:58.500Z,49.11
2023-03-22T08:33:58.489Z,47.94
2023-03-22T08:34:58.503Z,45.62
2023-03-22T08:35:58.495Z,46.44
2023-03-22T08:36:58.442Z,46.66
2023-03-22T08:37:58.437Z,46.58
2023-03-22T08:38:58.415Z,47.43
2023-03-22T08:39:58.457Z,48.21
2023-03-22T08:40:58.393Z,48.49
2023-03-22T08:41:58.379Z,46.14
2023-03-22T08:42:58.379Z,45.79
2023-03-22T08:43:58.370Z,46.43
2023-03-22T08:44:58.342Z,45.56
2023-03-22T08:45:58.356Z,42.87
2023-03-22T08:46:58.319Z,42.65
2023-03-22T08:47:58.306Z,45.52
2023-03-22T08:48:58.289Z,41.14
2023-03-22T08:49:58.273Z,42.41
2023-03-22T08:50:58.292Z,41.61
2023-03-22T08:51:58.244Z,39.86
2023-03-22T08:52:58.231Z,41.39
2023-03-22T08:53:58.213Z,41.60
2023-03-22T08:54:58.208Z,43.19
2023-03-22T08:55:58.250Z,41.22
2023-03-22T08:56:58.204Z,42.61
2023-03-22T08:57:58.168Z,42.73
2023-03-22T08:58:58.182Z,44.01
2023-03-22T08:59:58.141Z,45.94
2023-03-22T09:00:58.317Z,43.13
2023-03-22T09:01:58.457Z,40.20
2023-03-22T09:02:58.114Z,42.95
2023-03-22T09:03:58.261Z,42.57
2023-03-22T09:04:58.131Z,45.27
2023-03-22T09:05:58.055Z,44.91
2023-03-22T09:06:58.077Z,42.10
2023-03-22T09:08:05.848Z,43.73
2023-03-22T09:08:59.053Z,42.49
2023-03-22T09:09:58.010Z,39.72
2023-03-22T09:10:58.013Z,42.53
2023-03-22T09:11:57.981Z,42.19
2023-03-22T09:12:58.075Z,43.02
2023-03-22T09:13:58.155Z,40.11
2023-03-22T09:14:57.945Z,40.66
2023-03-22T09:15:58.009Z,42.21
2023-03-22T09:16:57.917Z,38.80
2023-03-22T09:17:58.212Z,36.39
2023-03-22T09:18:58.098Z,35.06
2023-03-22T09:20:11.433Z,39.13
2023-03-22T09:20:58.914Z,40.33
2023-03-22T09:21:57.880Z,39.09
2023-03-22T09:22:57.861Z,40.14
2023-03-22T09:23:57.905Z,42.13
2023-03-22T09:24:57.816Z,42.79
2023-03-22T09:25:57.809Z,40.22
2023-03-22T09:26:57.785Z,42.40
2023-03-22T09:27:58.078Z,42.41
2023-03-22T09:28:57.809Z,42.61
2023-03-22T09:29:57.751Z,42.97
2023-03-22T09:30:57.782Z,41.06
2023-03-22T09:31:57.730Z,42.25
2023-03-22T09:32:57.712Z,41.31
2023-03-22T09:33:57.833Z,41.19
2023-03-22T09:34:57.685Z,42.11
2023-03-22T09:35:57.707Z,43.89
2023-03-22T09:36:58.606Z,41.03
2023-03-22T09:37:57.653Z,42.33
2023-03-22T09:38:57.698Z,40.60
2023-03-22T09:39:57.620Z,40.24
2023-03-22T09:40:57.612Z,40.01
2023-03-22T09:41:57.598Z,38.85
2023-03-22T09:42:57.596Z,37.53
2023-03-22T09:43:57.724Z,36.90
2023-03-22T09:44:57.614Z,35.32
2023-03-22T09:45:57.570Z,35.65
2023-03-22T09:46:57.541Z,36.88
2023-03-22T09:47:57.564Z,37.72
2023-03-22T09:48:57.658Z,38.07
2023-03-22T09:49:57.803Z,40.06
2023-03-22T09:50:57.484Z,40.62
2023-03-22T09:51:57.493Z,41.66
2023-03-22T09:52:57.456Z,40.54
2023-03-22T09:53:57.451Z,40.94
2023-03-22T09:54:57.456Z,41.95
2023-03-22T09:55:57.438Z,40.38
2023-03-22T09:56:57.658Z,37.34
2023-03-22T09:57:57.400Z,37.70
2023-03-22T09:58:57.489Z,35.82
2023-03-22T09:59:57.370Z,34.84
2023-03-22T10:00:57.480Z,37.05
2023-03-22T10:01:57.649Z,38.18
2023-03-22T10:02:57.340Z,35.58
2023-03-22T10:03:57.576Z,37.96
2023-03-22T10:04:57.316Z,35.83
2023-03-22T10:05:57.319Z,34.69
2023-03-22T10:06:57.279Z,34.41
2023-03-22T10:07:57.273Z,34.31
2023-03-22T10:08:57.255Z,34.91
2023-03-22T10:09:57.256Z,37.10
2023-03-22T10:10:57.358Z,36.62
2023-03-22T10:11:57.230Z,35.16
2023-03-22T10:12:57.205Z,36.18
2023-03-22T10:13:57.204Z,38.15
2023-03-22T10:14:57.178Z,36.24
2023-03-22T10:15:57.297Z,36.64
2023-03-22T10:16:57.161Z,36.61
2023-03-22T10:17:57.156Z,34.69
2023-03-22T10:18:57.131Z,36.72
2023-03-22T10:19:57.119Z,39.70
2023-03-22T10:20:57.117Z,40.52
2023-03-22T10:21:57.696Z,41.41
2023-03-22T10:22:57.094Z,40.22
2023-03-22T10:23:57.081Z,40.32
2023-03-22T10:24:57.066Z,39.28
2023-03-22T10:25:57.047Z,39.53
2023-03-22T10:26:57.058Z,38.54
2023-03-22T10:27:57.975Z,37.69
2023-03-22T10:28:57.009Z,35.14
2023-03-22T10:29:57.003Z,33.29
2023-03-22T10:30:56.996Z,35.08
2023-03-22T10:31:57.161Z,36.33
2023-03-22T10:32:58.241Z,35.79
2023-03-22T10:33:56.959Z,36.93
2023-03-22T10:34:56.934Z,38.75
2023-03-22T10:35:57.056Z,38.27
2023-03-22T10:36:56.911Z,40.32
2023-03-22T10:37:56.895Z,41.02
2023-03-22T10:38:56.888Z,40.40
2023-03-22T10:39:56.872Z,41.25
2023-03-22T10:40:56.876Z,38.53
2023-03-22T10:41:58.063Z,38.51
2023-03-22T10:42:56.866Z,40.42
2023-03-22T10:43:56.827Z,36.82
2023-03-22T10:44:56.806Z,40.78
2023-03-22T10:45:56.821Z,38.20
2023-03-22T10:46:56.853Z,39.18
2023-03-22T10:47:56.836Z,38.50
2023-03-22T10:48:56.762Z,39.65
2023-03-22T10:49:56.887Z,39.54
2023-03-22T10:50:56.733Z,39.64
2023-03-22T10:51:56.717Z,40.45
2023-03-22T10:52:56.703Z,40.66
2023-03-22T10:53:56.696Z,40.25
2023-03-22T10:55:00.182Z,39.67
2023-03-22T10:55:56.689Z,40.39
2023-03-22T10:56:56.692Z,40.91
2023-03-22T10:57:56.642Z,42.21
2023-03-22T10:58:56.675Z,40.52
2023-03-22T10:59:56.628Z,40.77
2023-03-22T11:00:56.922Z,42.19
2023-03-22T11:01:56.848Z,44.50
2023-03-22T11:02:56.737Z,42.88
2023-03-22T11:03:56.565Z,43.54
2023-03-22T11:04:56.556Z,41.63
2023-03-22T11:05:56.539Z,41.61
2023-03-22T11:06:56.605Z,42.02
2023-03-22T11:07:56.520Z,41.80
2023-03-22T11:08:56.515Z,41.24
2023-03-22T11:09:56.494Z,42.85
2023-03-22T11:10:56.541Z,40.05
2023-03-22T11:11:56.480Z,38.35
2023-03-22T11:12:56.460Z,39.17
2023-03-22T11:13:56.441Z,39.57
2023-03-22T11:14:56.452Z,39.75
2023-03-22T11:15:56.421Z,38.43
2023-03-22T11:16:56.397Z,38.93
2023-03-22T11:17:56.386Z,38.91
2023-03-22T11:18:56.372Z,38.23
2023-03-22T11:19:56.408Z,37.99
2023-03-22T11:20:56.348Z,38.40
2023-03-22T11:21:56.337Z,37.68
2023-03-22T11:22:56.334Z,37.77
2023-03-22T11:23:56.314Z,38.79
2023-03-22T11:24:56.292Z,38.68
2023-03-22T11:25:56.285Z,37.76
2023-03-22T11:26:56.471Z,37.16
2023-03-22T11:27:56.306Z,37.10
2023-03-22T11:28:56.238Z,36.76
2023-03-22T11:29:56.235Z,33.83
2023-03-22T11:30:56.244Z,34.80
2023-03-22T11:31:56.486Z,32.46
2023-03-22T11:32:56.258Z,33.54
2023-03-22T11:33:56.172Z,32.42
2023-03-22T11:34:56.161Z,32.79
2023-03-22T11:35:56.244Z,32.76
2023-03-22T11:36:56.145Z,34.50
2023-03-22T11:37:56.141Z,29.80
2023-03-22T11:38:56.103Z,29.72
2023-03-22T11:39:56.091Z,30.60
2023-03-22T11:40:56.111Z,30.96
2023-03-22T11:41:56.073Z,28.70
2023-03-22T11:42:56.074Z,32.29
2023-03-22T11:43:56.047Z,30.50
2023-03-22T11:44:56.034Z,28.89
2023-03-22T11:45:56.072Z,28.50
2023-03-22T11:46:56.041Z,28.14
2023-03-22T11:47:56.097Z,30.62
2023-03-22T11:48:56.380Z,31.47
2023-03-22T11:49:55.972Z,33.17
2023-03-22T11:50:56.003Z,31.88
2023-03-22T11:51:55.944Z,32.21
2023-03-22T11:52:55.933Z,34.16
2023-03-22T11:53:55.923Z,35.28
2023-03-22T11:54:55.930Z,35.66
2023-03-22T11:55:55.911Z,35.14
2023-03-22T11:56:55.902Z,37.02
2023-03-22T11:57:55.915Z,34.13
2023-03-22T11:58:55.863Z,34.73
2023-03-22T11:59:55.838Z,33.45
2023-03-22T12:00:55.832Z,35.54
2023-03-22T12:01:55.815Z,35.71
2023-03-22T12:02:55.868Z,34.84
2023-03-22T12:03:55.970Z,32.26
2023-03-22T12:04:55.842Z,33.67
2023-03-22T12:05:55.785Z,34.17
2023-03-22T12:06:55.750Z,34.25
2023-03-22T12:07:55.735Z,32.03
2023-03-22T12:08:55.734Z,34.64
2023-03-22T12:09:55.723Z,32.36
2023-03-22T12:10:55.691Z,33.29
2023-03-22T12:11:55.685Z,32.97
2023-03-22T12:12:55.668Z,34.13
2023-03-22T12:13:55.666Z,32.48
2023-03-22T12:14:55.646Z,32.39
2023-03-22T12:15:55.722Z,31.10
2023-03-22T12:16:55.621Z,32.97
2023-03-22T12:17:55.673Z,31.65
2023-03-22T12:18:55.620Z,30.50
2023-03-22T12:19:55.582Z,29.44
2023-03-22T12:20:55.586Z,30.65
2023-03-22T12:21:55.555Z,29.95
2023-03-22T12:22:55.548Z,30.13
2023-03-22T12:23:55.530Z,31.11
2023-03-22T12:24:55.513Z,29.44
2023-03-22T12:25:55.499Z,31.68
2023-03-22T12:26:55.489Z,32.51
2023-03-22T12:27:55.480Z,33.76
2023-03-22T12:28:55.469Z,34.86
2023-03-22T12:29:55.455Z,34.33
2023-03-22T12:30:55.844Z,32.71
2023-03-22T12:31:55.509Z,31.54
2023-03-22T12:32:55.486Z,33.23
2023-03-22T12:33:55.411Z,34.15
2023-03-22T12:35:09.194Z,32.87
2023-03-22T12:35:56.433Z,32.67
2023-03-22T12:36:55.366Z,34.23
2023-03-22T12:37:55.370Z,32.78
2023-03-22T12:38:55.338Z,32.63
2023-03-22T12:39:55.332Z,30.73
2023-03-22T12:40:55.318Z,30.93
2023-03-22T12:41:55.304Z,31.24
2023-03-22T12:42:57.681Z,31.71
2023-03-22T12:43:55.277Z,30.71
2023-03-22T12:45:04.649Z,30.91
2023-03-22T12:45:56.283Z,30.80
2023-03-22T12:46:55.286Z,29.81
2023-03-22T12:47:55.351Z,29.81
2023-03-22T12:48:55.256Z,30.39
2023-03-22T12:49:55.233Z,30.85
2023-03-22T12:50:55.209Z,30.97
2023-03-22T12:51:55.183Z,29.90